createdAt,value
2023-01-13T00:02:08.564Z,7.94
2023-01-13T00:07:04.784Z,11.3
2023-01-13T00:12:01.060Z,8.9
2023-01-13T00:16:57.304Z,7.840000000000001
2023-01-13T00:21:54.560Z,8.82
2023-01-13T00:26:51.984Z,7.360000000000001
2023-01-13T00:31:49.103Z,7.519999999999999
2023-01-13T00:36:46.365Z,6.76
2023-01-13T00:41:43.605Z,7.18
2023-01-13T00:46:40.913Z,8.059999999999999
2023-01-13T00:51:38.094Z,8.34
2023-01-13T00:56:40.081Z,12.2
2023-01-13T01:01:36.773Z,8.9
2023-01-13T01:06:36.870Z,6.58
2023-01-13T01:11:34.151Z,5.8999999999999995
2023-01-13T01:16:30.473Z,7.44
2023-01-13T01:21:30.612Z,7.42
2023-01-13T01:26:27.892Z,6.9799999999999995
2023-01-13T01:31:25.163Z,6.7
2023-01-13T01:36:22.406Z,7.340000000000001
2023-01-13T01:41:19.649Z,6.04
2023-01-13T01:46:15.975Z,6.779999999999999
2023-01-13T01:51:12.243Z,6.9
2023-01-13T01:56:10.437Z,6.659999999999999
2023-01-13T02:01:06.888Z,7.540000000000001
2023-01-13T02:06:02.972Z,6.0600000000000005
2023-01-13T02:11:00.216Z,6.780000000000001
2023-01-13T02:16:06.471Z,6.9799999999999995
2023-01-13T02:21:17.684Z,8.14
2023-01-13T02:26:29.902Z,7.94
2023-01-13T02:31:32.193Z,7.639999999999999
2023-01-13T02:36:37.394Z,7.18
2023-01-13T02:41:38.609Z,7.159999999999999
2023-01-13T02:46:43.861Z,9.28
2023-01-13T02:51:43.129Z,8.68
2023-01-13T02:56:41.365Z,9.679999999999998
2023-01-13T03:01:36.716Z,10.440000000000001
2023-01-13T03:06:43.900Z,10.580000000000002
2023-01-13T03:11:46.152Z,11.080000000000002
2023-01-13T03:16:53.398Z,11.819999999999999
2023-01-13T03:21:54.599Z,10.959999999999999
2023-01-13T03:27:00.860Z,11.52
2023-01-13T03:32:03.103Z,9.84
2023-01-13T03:37:02.321Z,8.419999999999998
2023-01-13T03:42:01.565Z,9.040000000000001
2023-01-13T03:47:04.810Z,9.180000000000001
2023-01-13T03:52:05.095Z,8.52
2023-01-13T03:57:06.337Z,10.92
2023-01-13T04:02:07.736Z,7.88
2023-01-13T04:07:12.823Z,9.580000000000002
2023-01-13T04:12:14.061Z,9.36
2023-01-13T04:17:10.303Z,9.72
2023-01-13T04:22:06.589Z,11.459999999999999
2023-01-13T04:27:02.858Z,9.1
2023-01-13T04:31:59.100Z,9.72
2023-01-13T04:36:55.362Z,10.639999999999999
2023-01-13T04:41:50.638Z,10.080000000000002
2023-01-13T04:46:46.892Z,9.2
2023-01-13T04:51:42.132Z,8.940000000000001
2023-01-13T04:56:37.402Z,8.74
2023-01-13T05:01:33.876Z,9.1
2023-01-13T05:06:29.937Z,7.139999999999999
2023-01-13T05:11:26.175Z,7.859999999999999
2023-01-13T05:16:22.511Z,7.18
2023-01-13T05:21:18.704Z,6.6
2023-01-13T05:26:13.957Z,9.379999999999999
2023-01-13T05:31:10.217Z,7.92
2023-01-13T05:36:06.468Z,6.4799999999999995
2023-01-13T05:41:01.728Z,6.779999999999999
2023-01-13T05:45:59.007Z,6.88
2023-01-13T05:50:54.273Z,7.9
2023-01-13T05:55:49.590Z,6.339999999999999
2023-01-13T06:00:45.781Z,7.68
2023-01-13T06:05:42.064Z,12.120000000000001
2023-01-13T06:10:39.284Z,8.68
2023-01-13T06:15:35.578Z,9.86
2023-01-13T06:20:32.862Z,9.959999999999999
2023-01-13T06:25:34.065Z,9.059999999999999
2023-01-13T06:30:32.373Z,5.9399999999999995
2023-01-13T06:40:37.789Z,11.74
2023-01-13T06:45:33.083Z,19.919999999999998
2023-01-13T06:50:29.357Z,9.079999999999998
2023-01-13T06:55:25.571Z,8.5
2023-01-13T07:00:22.870Z,8.98
2023-01-13T07:05:19.093Z,9.579999999999998
2023-01-13T07:10:15.361Z,8.26
2023-01-13T07:15:11.622Z,7.359999999999999
2023-01-13T07:20:07.894Z,7.5200000000000005
2023-01-13T07:25:04.170Z,6.220000000000001
2023-01-13T07:30:00.412Z,8.760000000000002
2023-01-13T07:34:55.687Z,9.32
2023-01-13T07:39:51.942Z,11.18
2023-01-13T07:44:48.212Z,7.719999999999999
2023-01-13T07:49:43.467Z,6.860000000000001
2023-01-13T07:54:41.080Z,6.659999999999999
2023-01-13T07:59:37.060Z,8.58
2023-01-13T08:04:33.223Z,11.459999999999999
2023-01-13T08:09:28.499Z,8.2
2023-01-13T08:14:26.739Z,8.319999999999999
2023-01-13T08:19:23.013Z,7.44
2023-01-13T08:24:20.241Z,6.980000000000001
2023-01-13T08:29:16.512Z,6.220000000000001
2023-01-13T08:34:12.751Z,5.619999999999999
2023-01-13T08:39:09.221Z,5.279999999999999
2023-01-13T08:44:05.265Z,6.32
2023-01-13T08:49:01.565Z,6.840000000000001
2023-01-13T08:53:56.843Z,5.839999999999999
2023-01-13T08:58:53.075Z,13.3
2023-01-13T09:03:49.875Z,9.379999999999999
2023-01-13T09:08:45.621Z,8.6
2023-01-13T09:13:43.892Z,5.8
2023-01-13T09:18:40.085Z,6.6
2023-01-13T09:23:36.349Z,7.3
2023-01-13T09:28:32.607Z,8.419999999999998
2023-01-13T09:33:28.900Z,10.92
2023-01-13T09:38:25.176Z,5.959999999999999
2023-01-13T09:43:28.870Z,7.279999999999999
2023-01-13T09:48:29.828Z,6.56
2023-01-13T09:53:28.908Z,7.460000000000001
2023-01-13T09:58:25.168Z,8.5
2023-01-13T10:08:37.640Z,11.719999999999999
2023-01-13T10:13:38.917Z,7.82
2023-01-13T10:18:44.080Z,9.24
2023-01-13T10:22:46.607Z,11.38
2023-01-13T10:27:48.738Z,9.48
2023-01-13T10:32:47.008Z,8.5
2023-01-13T10:37:53.274Z,11.3
2023-01-13T10:42:55.514Z,7.7
2023-01-13T10:47:58.737Z,12.24
2023-01-13T10:52:58.964Z,13.2
2023-01-13T10:57:56.249Z,12.059999999999999
2023-01-13T11:03:09.438Z,12.940000000000001
2023-01-13T11:08:12.790Z,9.379999999999999
2023-01-13T11:13:15.963Z,10.16
2023-01-13T11:18:18.164Z,8.68
2023-01-13T11:23:18.542Z,9.580000000000002
2023-01-13T11:28:20.706Z,10.5
2023-01-13T11:33:28.915Z,9.24
2023-01-13T11:38:31.157Z,9.36
2023-01-13T11:43:33.389Z,13.059999999999999
2023-01-13T11:48:32.680Z,10.379999999999999
2023-01-13T11:53:43.915Z,15.8
2023-01-13T11:59:00.067Z,10.739999999999998
2023-01-13T12:04:05.308Z,11.260000000000002
2023-01-13T12:09:15.515Z,13.52
2023-01-13T12:14:19.807Z,19.080000000000002
2023-01-13T12:19:26.981Z,13.779999999999998
2023-01-13T12:24:33.259Z,13.919999999999998
2023-01-13T12:29:34.581Z,15.62
2023-01-13T12:34:41.767Z,14.6
2023-01-13T12:39:47.982Z,17.259999999999998
2023-01-13T12:44:54.349Z,21.3
2023-01-13T12:49:53.424Z,13.66
2023-01-13T12:55:00.704Z,16.7
2023-01-13T13:00:14.897Z,15.080000000000002
2023-01-13T13:05:25.163Z,12.22
2023-01-13T13:10:28.347Z,10.16
2023-01-13T13:15:32.602Z,16.479999999999997
2023-01-13T13:20:38.850Z,12.239999999999998
2023-01-13T13:25:49.100Z,12.1
2023-01-13T13:30:54.342Z,12.52
2023-01-13T13:36:04.504Z,13.6
2023-01-13T13:41:09.776Z,15.16
2023-01-13T13:46:11.068Z,13.34
2023-01-13T13:51:13.259Z,13.060000000000002
2023-01-13T13:56:16.180Z,10.34
2023-01-13T14:01:20.918Z,9.16
2023-01-13T14:06:21.957Z,12.4
2023-01-13T14:11:23.219Z,12.139999999999997
2023-01-13T14:16:20.455Z,13.12
2023-01-13T14:21:23.685Z,14.16
2023-01-13T14:26:23.922Z,14.86
2023-01-13T14:31:20.209Z,12.64
2023-01-13T14:36:30.454Z,16.72
2023-01-13T14:41:27.627Z,17.28
2023-01-13T14:46:31.938Z,17.38
2023-01-13T14:51:30.116Z,13.940000000000001
2023-01-13T14:56:37.369Z,13.580000000000002
2023-01-13T15:01:42.759Z,14.48
2023-01-13T15:06:45.854Z,10.6
2023-01-13T15:11:47.071Z,16.080000000000002
2023-01-13T15:16:46.355Z,22.54
2023-01-13T15:21:42.598Z,18.04
2023-01-13T15:33:01.949Z,26.9
2023-01-13T15:37:58.215Z,22.3
2023-01-13T15:42:54.432Z,17.72
2023-01-13T15:47:51.686Z,24.68
2023-01-13T15:52:54.899Z,28.360000000000003
2023-01-13T15:57:56.350Z,17.660000000000004
2023-01-13T16:02:52.520Z,27.259999999999998
2023-01-13T16:07:50.690Z,22.44
2023-01-13T16:12:55.939Z,19.56
2023-01-13T16:17:55.205Z,18.08
2023-01-13T16:22:52.486Z,22.5
2023-01-13T16:27:54.712Z,24.060000000000002
2023-01-13T16:32:50.989Z,22.32
2023-01-13T16:37:51.246Z,24.38
2023-01-13T16:42:51.890Z,23.360000000000003
2023-01-13T16:47:48.822Z,24.999999999999996
2023-01-13T16:52:45.071Z,22.76
2023-01-13T16:57:43.310Z,18.880000000000003
2023-01-13T17:02:42.507Z,20.479999999999997
2023-01-13T17:07:39.809Z,22.58
2023-01-13T17:12:36.005Z,29.4
2023-01-13T17:17:32.292Z,25.82
2023-01-13T17:22:28.583Z,25.340000000000003
2023-01-13T17:27:25.807Z,26.619999999999997
2023-01-13T17:32:26.100Z,26.059999999999995
2023-01-13T17:37:22.372Z,22.3
2023-01-13T17:42:19.657Z,24.759999999999998
2023-01-13T17:47:16.524Z,25.779999999999994
2023-01-13T17:52:13.118Z,40.1
2023-01-13T17:57:09.334Z,40.519999999999996
2023-01-13T18:02:06.931Z,33.339999999999996
2023-01-13T18:07:04.726Z,33.8
2023-01-13T18:12:01.113Z,41.839999999999996
2023-01-13T18:17:02.464Z,44.68
2023-01-13T18:21:58.635Z,43.14
2023-01-13T18:26:54.995Z,40.8
2023-01-13T18:31:51.173Z,35.32000000000001
2023-01-13T18:36:49.376Z,34.980000000000004
2023-01-13T18:41:45.653Z,40.42
2023-01-13T18:46:41.964Z,40.059999999999995
2023-01-13T18:51:38.333Z,43.08
2023-01-13T18:56:34.448Z,36.440000000000005
2023-01-13T19:01:32.815Z,33.7
2023-01-13T19:06:33.758Z,27.24
2023-01-13T19:11:34.246Z,24.5
2023-01-13T19:16:36.522Z,23
2023-01-13T19:21:32.762Z,25.08
2023-01-13T19:26:29.970Z,23.1
2023-01-13T19:31:31.268Z,22.16
2023-01-13T19:36:27.452Z,22.32
2023-01-13T19:41:24.715Z,20.68
2023-01-13T19:46:22.215Z,21.18
2023-01-13T19:51:19.258Z,22.98
2023-01-13T19:56:16.529Z,20.619999999999997
2023-01-13T20:01:12.830Z,21.62
2023-01-13T20:06:09.037Z,20.32
2023-01-13T20:11:05.271Z,22.56
2023-01-13T20:16:04.508Z,23.640000000000004
2023-01-13T20:21:05.795Z,21.660000000000004
2023-01-13T20:26:02.048Z,21.5
2023-01-13T20:30:59.571Z,20.46
2023-01-13T20:35:56.603Z,19.68
2023-01-13T20:40:57.796Z,27.1
2023-01-13T20:45:55.081Z,34.18
2023-01-13T20:50:52.334Z,23.84
2023-01-13T21:00:59.968Z,23.740000000000002
2023-01-13T21:05:57.092Z,24.9
2023-01-13T21:10:58.324Z,24.4
2023-01-13T21:15:54.558Z,21.18
2023-01-13T21:20:50.838Z,19.2
2023-01-13T21:25:51.096Z,17.12
2023-01-13T21:30:47.361Z,16.96
2023-01-13T21:35:43.644Z,17.16
2023-01-13T21:40:40.856Z,17.339999999999996
2023-01-13T21:45:38.204Z,16.919999999999998
2023-01-13T21:50:41.389Z,17.220000000000002
2023-01-13T21:55:37.617Z,17.379999999999995
2023-01-13T22:00:33.899Z,19.28
2023-01-13T22:05:30.158Z,17.759999999999998
2023-01-13T22:10:28.403Z,15.820000000000002
2023-01-13T22:15:24.941Z,25.1
2023-01-13T22:20:20.928Z,32.78
2023-01-13T22:25:18.165Z,43.239999999999995
2023-01-13T22:30:15.444Z,38.660000000000004
2023-01-13T22:35:12.665Z,42.96
2023-01-13T22:40:09.986Z,37.7
2023-01-13T22:45:06.213Z,40.62
2023-01-13T22:50:02.554Z,45.220000000000006
2023-01-13T22:54:58.707Z,47.6
2023-01-13T22:59:54.998Z,44.06
2023-01-13T23:04:51.352Z,33.36
2023-01-13T23:09:47.511Z,28.859999999999996
2023-01-13T23:14:43.757Z,24.360000000000003
2023-01-13T23:19:41.042Z,20.22
2023-01-13T23:24:37.286Z,14.3
2023-01-13T23:29:35.522Z,18.619999999999997
2023-01-13T23:34:31.776Z,16.2
2023-01-13T23:39:30.225Z,13.940000000000001
2023-01-13T23:44:31.290Z,13.62
2023-01-13T23:49:27.543Z,19.32
2023-01-13T23:54:23.803Z,18.220000000000002
2023-01-13T23:59:20.103Z,17.299999999999997
